createdAt,value
2019-05-20T00:00:33.077Z,0.00
2019-05-20T00:01:33.029Z,0.00
2019-05-20T00:02:33.055Z,0.00
2019-05-20T00:03:33.044Z,0.00
2019-05-20T00:04:33.027Z,0.00
2019-05-20T00:05:33.021Z,0.00
2019-05-20T00:06:32.990Z,0.00
2019-05-20T00:07:32.984Z,0.00
2019-05-20T00:08:32.963Z,0.00
2019-05-20T00:09:32.940Z,0.00
2019-05-20T00:10:32.968Z,0.00
2019-05-20T00:11:32.918Z,0.00
2019-05-20T00:12:32.916Z,0.00
2019-05-20T00:13:32.933Z,0.00
2019-05-20T00:14:32.883Z,0.00
2019-05-20T00:15:32.879Z,0.00
2019-05-20T00:16:32.866Z,0.00
2019-05-20T00:17:32.879Z,0.00
2019-05-20T00:18:32.976Z,0.00
2019-05-20T00:19:32.845Z,0.00
2019-05-20T00:20:32.840Z,0.00
2019-05-20T00:21:32.810Z,0.00
2019-05-20T00:22:32.816Z,0.00
2019-05-20T00:23:32.798Z,0.00
2019-05-20T00:24:32.779Z,0.00
2019-05-20T00:25:32.797Z,0.00
2019-05-20T00:26:32.767Z,0.00
2019-05-20T00:27:33.049Z,0.00
2019-05-20T00:28:32.751Z,0.00
2019-05-20T00:29:32.724Z,0.00
2019-05-20T00:30:32.716Z,0.00
2019-05-20T00:31:32.719Z,0.00
2019-05-20T00:32:40.983Z,0.00
2019-05-20T00:33:33.708Z,0.00
2019-05-20T00:34:35.553Z,0.00
2019-05-20T00:35:32.662Z,0.00
2019-05-20T00:36:32.650Z,0.00
2019-05-20T00:37:32.675Z,0.00
2019-05-20T00:38:32.637Z,0.00
2019-05-20T00:39:32.618Z,0.00
2019-05-20T00:40:32.608Z,0.00
2019-05-20T00:41:32.598Z,0.00
2019-05-20T00:42:32.608Z,0.00
2019-05-20T00:43:32.585Z,0.00
2019-05-20T00:44:32.564Z,0.00
2019-05-20T00:45:32.565Z,0.00
2019-05-20T00:46:32.541Z,0.00
2019-05-20T00:47:32.539Z,0.00
2019-05-20T00:48:32.534Z,0.00
2019-05-20T00:49:32.577Z,0.00
2019-05-20T00:50:32.506Z,0.00
2019-05-20T00:51:32.489Z,0.00
2019-05-20T00:52:32.480Z,0.00
2019-05-20T00:53:32.482Z,0.00
2019-05-20T00:54:32.462Z,0.00
2019-05-20T00:55:32.448Z,0.00
2019-05-20T00:56:32.476Z,0.00
2019-05-20T00:57:32.428Z,0.00
2019-05-20T00:58:32.430Z,0.00
2019-05-20T00:59:32.408Z,0.00
2019-05-20T01:00:39.443Z,0.00
2019-05-20T01:01:32.380Z,0.00
2019-05-20T01:02:32.368Z,0.00
2019-05-20T01:03:32.367Z,0.00
2019-05-20T01:04:32.361Z,0.00
2019-05-20T01:05:32.341Z,0.00
2019-05-20T01:06:32.327Z,0.00
2019-05-20T01:07:32.328Z,0.00
2019-05-20T01:08:32.328Z,0.00
2019-05-20T01:09:32.368Z,0.00
2019-05-20T01:10:32.297Z,0.00
2019-05-20T01:11:32.294Z,0.00
2019-05-20T01:12:32.263Z,0.00
2019-05-20T01:13:32.278Z,0.00
2019-05-20T01:14:32.239Z,0.00
2019-05-20T01:15:32.230Z,0.00
2019-05-20T01:16:32.267Z,0.00
2019-05-20T01:17:32.211Z,0.00
2019-05-20T01:18:32.210Z,0.00
2019-05-20T01:19:32.199Z,0.00
2019-05-20T01:20:32.175Z,0.00
2019-05-20T01:21:32.179Z,0.00
2019-05-20T01:22:32.154Z,0.00
2019-05-20T01:23:32.154Z,0.00
2019-05-20T01:24:32.132Z,0.00
2019-05-20T01:25:32.121Z,0.00
2019-05-20T01:26:32.115Z,0.00
2019-05-20T01:27:32.128Z,0.00
2019-05-20T01:28:32.105Z,0.00
2019-05-20T01:29:32.081Z,0.00
2019-05-20T01:30:32.069Z,0.00
2019-05-20T01:31:32.059Z,0.00
2019-05-20T01:32:32.049Z,0.00
2019-05-20T01:33:32.057Z,0.00
2019-05-20T01:34:32.038Z,0.00
2019-05-20T01:35:32.085Z,0.00
2019-05-20T01:36:32.020Z,0.00
2019-05-20T01:37:32.019Z,0.00
2019-05-20T01:38:31.994Z,0.00
2019-05-20T01:39:31.998Z,0.00
2019-05-20T01:40:31.967Z,0.00
2019-05-20T01:41:31.953Z,0.00
2019-05-20T01:42:31.975Z,0.00
2019-05-20T01:43:31.944Z,0.00
2019-05-20T01:44:31.924Z,0.00
2019-05-20T01:45:31.912Z,0.00
2019-05-20T01:46:31.898Z,0.00
2019-05-20T01:47:31.909Z,0.00
2019-05-20T01:48:31.903Z,0.00
2019-05-20T01:49:31.866Z,0.00
2019-05-20T01:50:31.855Z,0.00
2019-05-20T01:51:31.844Z,0.00
2019-05-20T01:52:31.834Z,0.00
2019-05-20T01:53:31.828Z,0.00
2019-05-20T01:54:31.850Z,0.00
2019-05-20T01:55:31.802Z,0.00
2019-05-20T01:56:31.797Z,0.00
2019-05-20T01:57:31.780Z,0.00
2019-05-20T01:58:31.770Z,0.00
2019-05-20T01:59:31.771Z,0.00
2019-05-20T02:00:31.762Z,0.00
2019-05-20T02:01:31.741Z,0.00
2019-05-20T02:02:31.727Z,0.00
2019-05-20T02:03:32.555Z,0.00
2019-05-20T02:04:31.717Z,0.00
2019-05-20T02:05:31.697Z,0.00
2019-05-20T02:06:31.700Z,0.00
2019-05-20T02:07:31.699Z,0.00
2019-05-20T02:08:31.666Z,0.00
2019-05-20T02:09:31.848Z,0.00
2019-05-20T02:10:31.718Z,0.00
2019-05-20T02:11:33.134Z,0.00
2019-05-20T02:12:32.813Z,0.00
2019-05-20T02:13:32.911Z,0.00
2019-05-20T02:14:31.841Z,0.00
2019-05-20T02:15:31.632Z,0.00
2019-05-20T02:16:33.323Z,0.00
2019-05-20T02:17:32.768Z,0.00
2019-05-20T02:18:32.253Z,0.00
2019-05-20T02:19:36.095Z,0.00
2019-05-20T02:20:31.543Z,0.00
2019-05-20T02:21:31.771Z,0.00
2019-05-20T02:22:31.873Z,0.00
2019-05-20T02:23:32.357Z,0.00
2019-05-20T02:24:32.891Z,0.00
2019-05-20T02:25:33.427Z,0.00
2019-05-20T02:26:32.612Z,0.00
2019-05-20T02:27:32.820Z,0.00
2019-05-20T02:28:36.458Z,0.00
2019-05-20T02:29:32.084Z,0.00
2019-05-20T02:30:31.439Z,0.00
2019-05-20T02:31:31.431Z,0.00
2019-05-20T02:32:31.421Z,0.00
2019-05-20T02:33:47.916Z,0.00
2019-05-20T02:34:32.407Z,0.00
2019-05-20T02:35:31.371Z,0.00
2019-05-20T02:36:31.360Z,0.00
2019-05-20T02:37:31.350Z,0.00
2019-05-20T02:38:31.342Z,0.00
2019-05-20T02:39:31.338Z,0.00
2019-05-20T02:40:31.345Z,0.00
2019-05-20T02:41:31.332Z,0.00
2019-05-20T02:42:31.337Z,0.00
2019-05-20T02:43:31.290Z,0.00
2019-05-20T02:44:31.288Z,0.00
2019-05-20T02:45:31.287Z,0.00
2019-05-20T02:46:31.252Z,0.00
2019-05-20T02:47:31.244Z,0.00
2019-05-20T02:48:31.230Z,0.00
2019-05-20T02:49:31.232Z,0.00
2019-05-20T02:50:31.225Z,0.00
2019-05-20T02:51:31.202Z,0.00
2019-05-20T02:52:31.190Z,0.00
2019-05-20T02:53:31.177Z,0.00
2019-05-20T02:54:31.195Z,0.00
2019-05-20T02:55:31.156Z,0.00
2019-05-20T02:56:31.169Z,0.00
2019-05-20T02:57:31.139Z,0.00
2019-05-20T02:58:31.128Z,0.00
2019-05-20T02:59:31.115Z,0.00
2019-05-20T03:00:31.110Z,0.00
2019-05-20T03:01:31.093Z,0.00
2019-05-20T03:02:31.100Z,0.00
2019-05-20T03:03:31.070Z,0.00
2019-05-20T03:04:31.059Z,0.00
2019-05-20T03:05:31.060Z,0.00
2019-05-20T03:06:31.038Z,0.00
2019-05-20T03:07:31.028Z,0.00
2019-05-20T03:08:31.021Z,0.00
2019-05-20T03:09:31.014Z,0.00
2019-05-20T03:10:31.030Z,0.00
2019-05-20T03:11:31.042Z,0.00
2019-05-20T03:12:30.981Z,0.00
2019-05-20T03:13:30.962Z,0.00
2019-05-20T03:14:30.953Z,0.00
2019-05-20T03:15:30.958Z,0.00
2019-05-20T03:16:30.931Z,0.00
2019-05-20T03:17:30.960Z,0.00
2019-05-20T03:18:30.912Z,0.00
2019-05-20T03:19:30.897Z,0.00
2019-05-20T03:20:30.901Z,4.00
2019-05-20T03:21:30.881Z,4.00
2019-05-20T03:22:30.863Z,4.00
2019-05-20T03:23:30.880Z,4.00
2019-05-20T03:24:31.794Z,4.00
2019-05-20T03:25:31.875Z,4.00
2019-05-20T03:26:32.032Z,8.00
2019-05-20T03:27:32.987Z,4.00
2019-05-20T03:28:30.802Z,8.00
2019-05-20T03:29:31.829Z,8.00
2019-05-20T03:30:32.238Z,12.00
2019-05-20T03:32:32.094Z,12.00
2019-05-20T03:33:31.460Z,16.00
2019-05-20T03:34:54.222Z,16.00
2019-05-20T03:35:32.418Z,16.00
2019-05-20T03:36:31.494Z,20.00
2019-05-20T03:37:31.134Z,20.00
2019-05-20T03:38:32.785Z,20.00
2019-05-20T03:39:32.166Z,24.00
2019-05-20T03:40:30.690Z,32.00
2019-05-20T03:41:34.673Z,32.00
2019-05-20T03:42:31.634Z,36.00
2019-05-20T03:44:32.580Z,40.00
2019-05-20T03:45:30.682Z,44.00
2019-05-20T03:46:30.616Z,44.00
2019-05-20T03:47:30.614Z,44.00
2019-05-20T03:48:30.594Z,44.00
2019-05-20T03:49:30.579Z,44.00
2019-05-20T03:50:30.594Z,48.00
2019-05-20T03:51:30.552Z,52.00
2019-05-20T03:52:30.541Z,56.00
2019-05-20T03:53:30.534Z,64.00
2019-05-20T03:54:30.523Z,76.00
2019-05-20T03:55:30.521Z,84.00
2019-05-20T03:56:30.503Z,96.00
2019-05-20T03:57:30.496Z,100.00
2019-05-20T03:58:30.498Z,108.00
2019-05-20T03:59:30.471Z,112.00
2019-05-20T04:00:30.501Z,128.00
2019-05-20T04:01:30.454Z,132.00
2019-05-20T04:02:30.469Z,144.00
2019-05-20T04:03:30.438Z,156.00
2019-05-20T04:04:30.421Z,172.00
2019-05-20T04:05:30.427Z,180.00
2019-05-20T04:06:30.403Z,184.00
2019-05-20T04:07:30.379Z,188.00
2019-05-20T04:08:30.370Z,200.00
2019-05-20T04:09:30.368Z,220.00
2019-05-20T04:10:30.377Z,244.00
2019-05-20T04:11:30.349Z,276.00
2019-05-20T04:12:30.326Z,316.00
2019-05-20T04:13:34.294Z,332.00
2019-05-20T04:14:30.304Z,332.00
2019-05-20T04:15:30.295Z,316.00
2019-05-20T04:16:30.315Z,304.00
2019-05-20T04:17:30.272Z,280.00
2019-05-20T04:18:30.267Z,256.00
2019-05-20T04:19:30.259Z,232.00
2019-05-20T04:20:30.244Z,224.00
2019-05-20T04:21:30.241Z,228.00
2019-05-20T04:22:30.227Z,236.00
2019-05-20T04:23:30.221Z,244.00
2019-05-20T04:24:30.202Z,248.00
2019-05-20T04:25:30.189Z,256.00
2019-05-20T04:26:30.187Z,256.00
2019-05-20T04:27:30.170Z,248.00
2019-05-20T04:28:30.158Z,232.00
2019-05-20T04:29:30.174Z,212.00
2019-05-20T04:30:30.133Z,200.00
2019-05-20T04:31:30.134Z,196.00
2019-05-20T04:32:30.113Z,208.00
2019-05-20T04:33:30.110Z,220.00
2019-05-20T04:34:30.093Z,232.00
2019-05-20T04:35:30.097Z,252.00
2019-05-20T04:36:30.093Z,272.00
2019-05-20T04:37:30.060Z,316.00
2019-05-20T04:38:30.049Z,348.00
2019-05-20T04:39:30.050Z,364.00
2019-05-20T04:40:30.032Z,408.00
2019-05-20T04:41:30.025Z,460.00
2019-05-20T04:42:30.010Z,488.00
2019-05-20T04:43:30.024Z,480.00
2019-05-20T04:44:30.012Z,464.00
2019-05-20T04:45:29.973Z,496.00
2019-05-20T04:46:29.974Z,556.00
2019-05-20T04:47:29.952Z,668.00
2019-05-20T04:48:29.941Z,956.00
2019-05-20T04:49:29.932Z,1024.00
2019-05-20T04:50:29.930Z,820.00
2019-05-20T04:51:29.926Z,680.00
2019-05-20T04:52:29.899Z,592.00
2019-05-20T04:53:29.954Z,548.00
2019-05-20T04:54:29.883Z,532.00
2019-05-20T04:55:29.866Z,552.00
2019-05-20T04:56:29.886Z,588.00
2019-05-20T04:57:29.848Z,596.00
2019-05-20T04:58:29.835Z,560.00
2019-05-20T04:59:29.826Z,516.00
2019-05-20T05:00:29.818Z,488.00
2019-05-20T05:01:29.837Z,480.00
2019-05-20T05:02:29.824Z,496.00
2019-05-20T05:03:29.789Z,544.00
2019-05-20T05:04:29.785Z,600.00
2019-05-20T05:05:37.651Z,684.00
2019-05-20T05:06:30.780Z,688.00
2019-05-20T05:07:29.737Z,648.00
2019-05-20T05:08:29.731Z,576.00
2019-05-20T05:09:29.730Z,540.00
2019-05-20T05:10:29.707Z,628.00
2019-05-20T05:11:29.718Z,732.00
2019-05-20T05:12:29.742Z,772.00
2019-05-20T05:13:29.679Z,676.00
2019-05-20T05:14:29.678Z,564.00
2019-05-20T05:15:29.653Z,512.00
2019-05-20T05:16:29.648Z,532.00
2019-05-20T05:17:29.663Z,580.00
2019-05-20T05:18:29.626Z,632.00
2019-05-20T05:19:29.648Z,736.00
2019-05-20T05:20:29.598Z,816.00
2019-05-20T05:21:29.586Z,780.00
2019-05-20T05:22:29.590Z,700.00
2019-05-20T05:23:29.582Z,644.00
2019-05-20T05:24:29.554Z,648.00
2019-05-20T05:25:29.546Z,688.00
2019-05-20T05:26:29.535Z,792.00
2019-05-20T05:27:29.533Z,952.00
2019-05-20T05:28:29.527Z,1360.00
2019-05-20T05:29:29.542Z,1792.00
2019-05-20T05:30:29.509Z,2024.00
2019-05-20T05:31:29.478Z,2044.00
2019-05-20T05:32:29.490Z,2180.00
2019-05-20T05:33:29.463Z,1912.00
2019-05-20T05:34:29.446Z,1688.00
2019-05-20T05:35:29.438Z,1540.00
2019-05-20T05:36:29.435Z,1496.00
2019-05-20T05:37:29.438Z,1376.00
2019-05-20T05:38:29.425Z,1236.00
2019-05-20T05:39:29.408Z,1160.00
2019-05-20T05:40:29.381Z,1180.00
2019-05-20T05:41:29.373Z,1192.00
2019-05-20T05:42:29.370Z,1204.00
2019-05-20T05:43:29.352Z,1304.00
2019-05-20T05:44:29.350Z,1280.00
2019-05-20T05:45:29.673Z,1252.00
2019-05-20T05:46:29.325Z,1296.00
2019-05-20T05:47:29.332Z,1420.00
2019-05-20T05:48:29.309Z,1624.00
2019-05-20T05:49:29.299Z,1716.00
2019-05-20T05:50:29.275Z,1584.00
2019-05-20T05:51:29.265Z,1536.00
2019-05-20T05:52:29.265Z,1524.00
2019-05-20T05:53:29.243Z,1556.00
2019-05-20T05:54:29.235Z,1492.00
2019-05-20T05:55:29.242Z,1424.00
2019-05-20T05:56:29.216Z,1380.00
2019-05-20T05:57:29.210Z,1384.00
2019-05-20T05:58:29.190Z,1216.00
2019-05-20T05:59:29.182Z,1060.00
2019-05-20T06:00:29.169Z,1024.00
2019-05-20T06:01:29.176Z,1124.00
2019-05-20T06:02:29.158Z,1408.00
2019-05-20T06:03:29.149Z,1348.00
2019-05-20T06:04:29.126Z,1668.00
2019-05-20T06:05:31.591Z,1756.00
2019-05-20T06:06:29.110Z,1816.00
2019-05-20T06:07:29.129Z,1716.00
2019-05-20T06:08:29.118Z,1944.00
2019-05-20T06:09:29.079Z,1764.00
2019-05-20T06:10:29.066Z,1432.00
2019-05-20T06:11:29.298Z,1304.00
2019-05-20T06:12:30.132Z,1508.00
2019-05-20T06:13:30.018Z,1748.00
2019-05-20T06:14:29.026Z,1756.00
2019-05-20T06:15:29.011Z,1800.00
2019-05-20T06:16:36.457Z,1680.00
2019-05-20T06:17:29.997Z,1528.00
2019-05-20T06:18:28.992Z,1408.00
2019-05-20T06:19:28.979Z,1468.00
2019-05-20T06:20:28.967Z,1500.00
2019-05-20T06:21:28.951Z,1468.00
2019-05-20T06:22:28.947Z,1444.00
2019-05-20T06:23:28.953Z,1308.00
2019-05-20T06:24:28.919Z,1256.00
2019-05-20T06:25:28.913Z,1000.00
2019-05-20T06:26:28.912Z,960.00
2019-05-20T06:27:28.881Z,912.00
2019-05-20T06:28:28.882Z,844.00
2019-05-20T06:29:28.861Z,888.00
2019-05-20T06:30:28.849Z,932.00
2019-05-20T06:31:28.847Z,996.00
2019-05-20T06:32:28.839Z,1060.00
2019-05-20T06:33:28.828Z,1228.00
2019-05-20T06:34:28.806Z,1300.00
2019-05-20T06:35:28.797Z,1448.00
2019-05-20T06:36:28.788Z,1300.00
2019-05-20T06:37:28.777Z,1320.00
2019-05-20T06:38:28.784Z,1380.00
2019-05-20T06:39:28.767Z,1328.00
2019-05-20T06:40:28.745Z,1304.00
2019-05-20T06:41:28.733Z,1276.00
2019-05-20T06:42:28.722Z,1148.00
2019-05-20T06:43:28.721Z,1028.00
2019-05-20T06:44:28.700Z,1016.00
2019-05-20T06:45:28.696Z,1004.00
2019-05-20T06:46:28.723Z,996.00
2019-05-20T06:47:28.668Z,944.00
2019-05-20T06:48:28.668Z,936.00
2019-05-20T06:49:28.647Z,988.00
2019-05-20T06:50:29.707Z,1076.00
2019-05-20T06:51:28.626Z,1208.00
2019-05-20T06:52:36.045Z,1428.00
2019-05-20T06:53:29.614Z,1664.00
2019-05-20T06:54:28.593Z,1820.00
2019-05-20T06:55:28.584Z,1772.00
2019-05-20T06:56:28.572Z,1712.00
2019-05-20T06:57:28.564Z,1716.00
2019-05-20T06:58:28.568Z,1748.00
2019-05-20T06:59:28.565Z,1764.00
2019-05-20T07:00:35.324Z,1632.00
2019-05-20T07:01:28.523Z,1520.00
2019-05-20T07:02:28.507Z,1492.00
2019-05-20T07:03:28.509Z,1672.00
2019-05-20T07:04:28.488Z,1976.00
2019-05-20T07:05:28.480Z,2172.00
2019-05-20T07:06:44.786Z,2220.00
2019-05-20T07:07:29.496Z,2680.00
2019-05-20T07:08:28.480Z,2884.00
2019-05-20T07:09:28.434Z,2924.00
2019-05-20T07:10:28.445Z,2856.00
2019-05-20T07:11:28.432Z,2580.00
2019-05-20T07:12:40.480Z,2276.00
2019-05-20T07:13:29.402Z,2120.00
2019-05-20T07:14:28.381Z,2088.00
2019-05-20T07:15:28.386Z,2124.00
2019-05-20T07:16:28.374Z,2148.00
2019-05-20T07:17:28.359Z,2196.00
2019-05-20T07:18:28.356Z,2360.00
2019-05-20T07:19:28.382Z,2492.00
2019-05-20T07:20:28.390Z,2544.00
2019-05-20T07:21:28.316Z,2480.00
2019-05-20T07:22:28.314Z,2488.00
2019-05-20T07:23:28.317Z,2760.00
2019-05-20T07:24:28.279Z,2976.00
2019-05-20T07:25:28.337Z,3192.00
2019-05-20T07:26:28.318Z,3460.00
2019-05-20T07:27:28.339Z,3596.00
2019-05-20T07:28:28.252Z,3612.00
2019-05-20T07:29:28.230Z,3940.00
2019-05-20T07:30:28.226Z,4532.00
2019-05-20T07:31:28.220Z,5516.00
2019-05-20T07:32:28.196Z,7296.00
2019-05-20T07:33:28.191Z,7528.00
2019-05-20T07:34:28.203Z,6516.00
2019-05-20T07:35:30.784Z,6412.00
2019-05-20T07:36:28.147Z,6512.00
2019-05-20T07:37:28.159Z,6372.00
2019-05-20T07:38:28.123Z,6340.00
2019-05-20T07:39:28.136Z,7000.00
2019-05-20T07:40:28.102Z,8408.00
2019-05-20T07:41:28.148Z,8964.00
2019-05-20T07:42:28.096Z,8928.00
2019-05-20T07:43:28.101Z,9552.00
2019-05-20T07:44:28.071Z,10352.00
2019-05-20T07:45:28.060Z,11316.00
2019-05-20T07:46:28.214Z,11380.00
2019-05-20T07:47:28.027Z,10356.00
2019-05-20T07:48:28.126Z,9528.00
2019-05-20T07:49:28.023Z,8948.00
2019-05-20T07:50:27.994Z,8648.00
2019-05-20T07:51:27.993Z,7576.00
2019-05-20T07:52:27.969Z,6496.00
2019-05-20T07:53:27.988Z,5904.00
2019-05-20T07:54:27.987Z,5444.00
2019-05-20T07:55:27.938Z,4900.00
2019-05-20T07:56:27.927Z,4608.00
2019-05-20T07:57:27.917Z,4868.00
2019-05-20T07:58:27.936Z,4772.00
2019-05-20T07:59:27.923Z,4492.00
2019-05-20T08:00:27.910Z,5140.00
2019-05-20T08:01:27.899Z,5360.00
2019-05-20T08:02:27.875Z,5000.00
2019-05-20T08:03:27.855Z,5420.00
2019-05-20T08:04:27.884Z,6100.00
2019-05-20T08:05:27.828Z,6228.00
2019-05-20T08:06:27.821Z,6672.00
2019-05-20T08:07:48.388Z,6640.00
2019-05-20T08:08:28.826Z,6236.00
2019-05-20T08:09:27.807Z,6504.00
2019-05-20T08:10:27.792Z,8412.00
2019-05-20T08:11:27.775Z,10432.00
2019-05-20T08:12:27.758Z,11188.00
2019-05-20T08:13:27.789Z,11152.00
2019-05-20T08:14:27.806Z,10016.00
2019-05-20T08:15:27.769Z,10228.00
2019-05-20T08:16:27.720Z,11036.00
2019-05-20T08:17:27.721Z,10540.00
2019-05-20T08:18:27.693Z,10332.00
2019-05-20T08:19:27.708Z,11392.00
2019-05-20T08:20:27.670Z,10428.00
2019-05-20T08:21:27.657Z,9244.00
2019-05-20T08:22:27.657Z,7860.00
2019-05-20T08:23:27.636Z,8248.00
2019-05-20T08:24:27.634Z,9036.00
2019-05-20T08:25:27.614Z,8260.00
2019-05-20T08:26:27.660Z,8164.00
2019-05-20T08:27:27.622Z,9012.00
2019-05-20T08:28:27.597Z,10196.00
2019-05-20T08:29:27.580Z,10188.00
2019-05-20T08:30:27.570Z,10292.00
2019-05-20T08:31:27.552Z,10244.00
2019-05-20T08:32:27.543Z,10844.00
2019-05-20T08:33:27.558Z,12356.00
2019-05-20T08:34:27.530Z,13828.00
2019-05-20T08:35:27.507Z,15092.00
2019-05-20T08:36:27.499Z,16736.00
2019-05-20T08:37:43.700Z,18496.00
2019-05-20T08:38:28.476Z,20032.00
2019-05-20T08:39:27.484Z,18368.00
2019-05-20T08:40:27.452Z,16256.00
2019-05-20T08:41:27.590Z,14980.00
2019-05-20T08:42:27.430Z,14612.00
2019-05-20T08:43:27.422Z,14232.00
2019-05-20T08:44:27.421Z,14124.00
2019-05-20T08:45:27.403Z,14168.00
2019-05-20T08:46:27.436Z,14388.00
2019-05-20T08:47:27.388Z,15712.00
2019-05-20T08:48:27.372Z,17376.00
2019-05-20T08:49:27.412Z,16512.00
2019-05-20T08:50:27.363Z,12908.00
2019-05-20T08:51:27.413Z,9788.00
2019-05-20T08:52:27.329Z,8748.00
2019-05-20T08:53:27.320Z,9284.00
2019-05-20T08:54:27.325Z,10800.00
2019-05-20T08:55:27.316Z,12488.00
2019-05-20T08:56:27.280Z,12488.00
2019-05-20T08:57:27.286Z,11432.00
2019-05-20T08:58:27.259Z,10736.00
2019-05-20T08:59:27.267Z,11012.00
2019-05-20T09:00:27.274Z,11672.00
2019-05-20T09:01:27.229Z,12348.00
2019-05-20T09:02:27.215Z,12724.00
2019-05-20T09:03:30.367Z,11960.00
2019-05-20T09:04:27.196Z,11056.00
2019-05-20T09:05:28.368Z,10116.00
2019-05-20T09:06:27.221Z,9624.00
2019-05-20T09:07:27.176Z,9608.00
2019-05-20T09:08:27.150Z,9684.00
2019-05-20T09:09:27.568Z,9704.00
2019-05-20T09:10:27.141Z,9656.00
2019-05-20T09:11:27.117Z,9704.00
2019-05-20T09:12:27.124Z,10244.00
2019-05-20T09:13:27.097Z,10932.00
2019-05-20T09:14:27.096Z,11576.00
2019-05-20T09:15:27.199Z,11872.00
2019-05-20T09:16:27.067Z,11396.00
2019-05-20T09:17:27.056Z,10168.00
2019-05-20T09:18:27.043Z,8568.00
2019-05-20T09:19:27.034Z,7084.00
2019-05-20T09:20:27.041Z,6080.00
2019-05-20T09:21:27.016Z,5832.00
2019-05-20T09:22:26.999Z,6096.00
2019-05-20T09:23:26.988Z,6796.00
2019-05-20T09:24:27.046Z,7844.00
2019-05-20T09:25:26.977Z,8020.00
2019-05-20T09:26:26.975Z,6724.00
2019-05-20T09:27:26.944Z,5420.00
2019-05-20T09:28:26.935Z,4716.00
2019-05-20T09:29:26.927Z,4488.00
2019-05-20T09:30:26.947Z,4520.00
2019-05-20T09:31:26.903Z,4672.00
2019-05-20T09:32:26.895Z,4900.00
2019-05-20T09:33:26.919Z,5148.00
2019-05-20T09:34:26.877Z,5100.00
2019-05-20T09:35:26.935Z,4852.00
2019-05-20T09:36:26.866Z,4608.00
2019-05-20T09:37:26.836Z,4488.00
2019-05-20T09:38:26.829Z,4344.00
2019-05-20T09:39:26.815Z,4304.00
2019-05-20T09:40:26.824Z,4688.00
2019-05-20T09:41:26.902Z,4996.00
2019-05-20T09:42:26.796Z,5112.00
2019-05-20T09:43:26.782Z,5184.00
2019-05-20T09:44:26.761Z,5300.00
2019-05-20T09:45:26.799Z,5728.00
2019-05-20T09:46:26.764Z,6292.00
2019-05-20T09:47:26.789Z,7064.00
2019-05-20T09:48:26.864Z,7840.00
2019-05-20T09:49:26.829Z,8468.00
2019-05-20T09:50:26.714Z,8924.00
2019-05-20T09:51:26.716Z,8972.00
2019-05-20T09:52:26.678Z,8864.00
2019-05-20T09:53:26.666Z,8708.00
2019-05-20T09:54:26.664Z,8672.00
2019-05-20T09:55:26.672Z,8652.00
2019-05-20T09:56:26.663Z,8708.00
2019-05-20T09:57:26.642Z,8432.00
2019-05-20T09:58:26.646Z,7796.00
2019-05-20T09:59:40.428Z,7304.00
2019-05-20T10:00:27.591Z,6924.00
2019-05-20T10:01:26.595Z,6988.00
2019-05-20T10:02:35.890Z,7400.00
2019-05-20T10:03:27.574Z,7836.00
2019-05-20T10:04:26.549Z,8212.00
2019-05-20T10:05:26.539Z,8300.00
2019-05-20T10:06:26.536Z,8336.00
2019-05-20T10:07:26.542Z,8248.00
2019-05-20T10:08:37.586Z,7888.00
2019-05-20T10:09:27.528Z,7372.00
2019-05-20T10:10:26.484Z,6788.00
2019-05-20T10:11:26.483Z,5880.00
2019-05-20T10:12:44.554Z,5012.00
2019-05-20T10:13:27.450Z,5264.00
2019-05-20T10:14:26.460Z,5884.00
2019-05-20T10:15:26.439Z,6016.00
2019-05-20T10:16:26.448Z,5892.00
2019-05-20T10:17:26.440Z,6032.00
2019-05-20T10:18:36.517Z,6964.00
2019-05-20T10:19:27.409Z,7716.00
2019-05-20T10:20:26.381Z,8404.00
2019-05-20T10:21:26.381Z,8952.00
2019-05-20T10:22:26.356Z,8392.00
2019-05-20T10:23:26.359Z,7308.00
2019-05-20T10:24:26.336Z,6768.00
2019-05-20T10:25:26.336Z,6588.00
2019-05-20T10:26:26.332Z,6568.00
2019-05-20T10:27:26.300Z,7392.00
2019-05-20T10:28:26.302Z,8572.00
2019-05-20T10:29:26.298Z,9404.00
2019-05-20T10:30:26.271Z,9588.00
2019-05-20T10:31:26.273Z,10388.00
2019-05-20T10:32:26.253Z,11552.00
2019-05-20T10:33:26.240Z,12528.00
2019-05-20T10:34:26.242Z,13512.00
2019-05-20T10:35:26.215Z,14328.00
2019-05-20T10:36:26.302Z,15060.00
2019-05-20T10:37:26.223Z,15828.00
2019-05-20T10:38:26.272Z,15492.00
2019-05-20T10:39:26.181Z,13952.00
2019-05-20T10:40:26.193Z,14632.00
2019-05-20T10:41:29.384Z,16024.00
2019-05-20T10:42:26.138Z,15660.00
2019-05-20T10:43:26.142Z,14384.00
2019-05-20T10:44:26.159Z,13376.00
2019-05-20T10:45:26.120Z,12560.00
2019-05-20T10:46:26.108Z,12004.00
2019-05-20T10:47:26.088Z,13672.00
2019-05-20T10:48:26.100Z,18912.00
2019-05-20T10:49:26.075Z,25440.00
2019-05-20T10:50:26.064Z,29984.00
2019-05-20T10:51:26.086Z,32864.00
2019-05-20T10:52:26.062Z,33152.00
2019-05-20T10:53:28.258Z,29600.00
2019-05-20T10:54:26.026Z,23520.00
2019-05-20T10:55:26.086Z,21024.00
2019-05-20T10:56:26.011Z,23104.00
2019-05-20T10:57:26.081Z,26400.00
2019-05-20T10:58:26.042Z,26432.00
2019-05-20T10:59:25.963Z,23936.00
2019-05-20T11:00:25.964Z,22176.00
2019-05-20T11:01:25.971Z,21888.00
2019-05-20T11:02:31.011Z,22464.00
2019-05-20T11:03:26.919Z,22752.00
2019-05-20T11:04:25.903Z,22208.00
2019-05-20T11:05:25.917Z,22208.00
2019-05-20T11:06:25.891Z,24448.00
2019-05-20T11:07:25.894Z,26560.00
2019-05-20T11:08:25.878Z,27168.00
2019-05-20T11:09:25.875Z,27584.00
2019-05-20T11:10:25.839Z,27808.00
2019-05-20T11:11:25.879Z,25984.00
2019-05-20T11:12:25.833Z,22592.00
2019-05-20T11:13:25.831Z,20160.00
2019-05-20T11:14:25.810Z,19648.00
2019-05-20T11:15:25.786Z,20192.00
2019-05-20T11:16:25.829Z,20960.00
2019-05-20T11:17:25.783Z,21600.00
2019-05-20T11:18:25.799Z,22656.00
2019-05-20T11:19:25.770Z,22272.00
2019-05-20T11:20:25.740Z,21024.00
2019-05-20T11:21:25.739Z,19520.00
2019-05-20T11:22:25.735Z,19072.00
2019-05-20T11:23:25.697Z,20640.00
2019-05-20T11:24:25.686Z,22784.00
2019-05-20T11:25:25.723Z,24960.00
2019-05-20T11:26:26.069Z,28512.00
2019-05-20T11:27:25.692Z,32672.00
2019-05-20T11:28:25.644Z,34016.00
2019-05-20T11:29:25.647Z,33888.00
2019-05-20T11:30:25.659Z,35040.00
2019-05-20T11:31:25.613Z,35552.00
2019-05-20T11:32:25.611Z,32992.00
2019-05-20T11:33:25.601Z,28800.00
2019-05-20T11:34:25.581Z,25664.00
2019-05-20T11:35:25.565Z,27904.00
2019-05-20T11:36:25.582Z,30592.00
2019-05-20T11:37:25.554Z,32128.00
2019-05-20T11:38:25.532Z,33664.00
2019-05-20T11:39:33.151Z,34560.00
2019-05-20T11:40:26.510Z,34240.00
2019-05-20T11:41:52.118Z,34464.00
2019-05-20T11:42:26.504Z,31808.00
2019-05-20T11:43:25.485Z,36512.00
2019-05-20T11:44:25.477Z,37280.00
2019-05-20T11:45:25.493Z,36896.00
2019-05-20T11:46:25.447Z,36192.00
2019-05-20T11:47:25.476Z,33280.00
2019-05-20T11:48:25.448Z,26784.00
2019-05-20T11:49:28.768Z,22816.00
2019-05-20T11:50:25.414Z,19776.00
2019-05-20T11:51:25.392Z,17632.00
2019-05-20T11:52:25.418Z,15292.00
2019-05-20T11:53:25.379Z,12596.00
2019-05-20T11:54:25.451Z,11652.00
2019-05-20T11:55:25.455Z,13744.00
2019-05-20T11:56:25.349Z,15788.00
2019-05-20T11:57:25.401Z,16128.00
2019-05-20T11:58:25.336Z,14820.00
2019-05-20T11:59:25.339Z,13312.00
2019-05-20T12:00:25.323Z,11692.00
2019-05-20T12:01:25.298Z,11772.00
2019-05-20T12:02:25.295Z,13684.00
2019-05-20T12:03:25.283Z,16800.00
2019-05-20T12:04:25.270Z,20352.00
2019-05-20T12:05:25.272Z,22720.00
2019-05-20T12:06:25.244Z,24128.00
2019-05-20T12:07:25.246Z,25088.00
2019-05-20T12:08:25.232Z,24832.00
2019-05-20T12:09:25.212Z,24480.00
2019-05-20T12:10:25.207Z,24320.00
2019-05-20T12:11:25.198Z,25312.00
2019-05-20T12:12:25.194Z,25792.00
2019-05-20T12:13:25.210Z,26176.00
2019-05-20T12:14:25.210Z,27776.00
2019-05-20T12:15:25.166Z,32640.00
2019-05-20T12:16:25.126Z,55040.00
2019-05-20T12:17:25.136Z,43392.00
2019-05-20T12:18:25.122Z,52864.00
2019-05-20T12:19:25.117Z,42496.00
2019-05-20T12:20:25.087Z,48800.00
2019-05-20T12:21:25.073Z,59040.00
2019-05-20T12:22:25.067Z,51552.00
2019-05-20T12:23:25.066Z,44704.00
2019-05-20T12:24:25.063Z,52032.00
2019-05-20T12:25:25.063Z,34144.00
2019-05-20T12:26:25.026Z,32864.00